createdAt,value
2022-08-21T00:01:39.261Z,44.57
2022-08-21T00:04:10.306Z,44.85
2022-08-21T00:06:38.291Z,44.86
2022-08-21T00:09:07.336Z,44.83
2022-08-21T00:11:36.021Z,45.03
2022-08-21T00:14:04.679Z,44.91
2022-08-21T00:16:31.337Z,44.96
2022-08-21T00:18:57.886Z,45.06
2022-08-21T00:21:26.054Z,45.05
2022-08-21T00:23:53.723Z,45.14
2022-08-21T00:26:20.256Z,45.08
2022-08-21T00:28:47.107Z,45.29
2022-08-21T00:31:13.642Z,45.01
2022-08-21T00:33:40.277Z,45.13
2022-08-21T00:36:07.067Z,45.30
2022-08-21T00:38:33.623Z,45.04
2022-08-21T00:41:13.516Z,45.00
2022-08-21T00:43:50.711Z,44.96
2022-08-21T00:46:17.392Z,45.12
2022-08-21T00:48:44.113Z,45.03
2022-08-21T00:51:24.132Z,45.18
2022-08-21T00:53:55.344Z,45.16
2022-08-21T00:56:24.848Z,45.38
2022-08-21T00:58:55.149Z,44.86
2022-08-21T01:01:22.396Z,45.13
2022-08-21T01:03:50.087Z,45.43
2022-08-21T01:06:17.228Z,45.40
2022-08-21T01:08:47.093Z,45.16
2022-08-21T01:11:15.979Z,45.22
2022-08-21T01:13:47.072Z,45.08
2022-08-21T01:16:18.158Z,45.40
2022-08-21T01:18:45.392Z,45.29
2022-08-21T01:21:19.438Z,45.47
2022-08-21T01:23:49.173Z,45.47
2022-08-21T01:26:18.313Z,45.43
2022-08-21T01:28:56.581Z,45.74
2022-08-21T01:34:03.136Z,45.64
2022-08-21T01:36:30.551Z,45.64
2022-08-21T01:38:57.526Z,45.72
2022-08-21T01:41:24.573Z,45.71
2022-08-21T01:43:51.154Z,45.72
2022-08-21T01:46:17.959Z,45.56
2022-08-21T01:48:44.556Z,45.70
2022-08-21T01:51:11.361Z,45.82
2022-08-21T01:53:38.040Z,45.88
2022-08-21T01:56:10.321Z,45.63
2022-08-21T01:58:44.270Z,45.86
2022-08-21T02:01:11.286Z,45.99
2022-08-21T02:03:38.529Z,45.81
2022-08-21T02:06:07.395Z,45.99
2022-08-21T02:08:34.653Z,45.74
2022-08-21T02:11:01.368Z,46.10
2022-08-21T02:13:27.910Z,45.78
2022-08-21T02:15:54.459Z,46.14
2022-08-21T02:18:21.214Z,45.79
2022-08-21T02:20:55.906Z,46.07
2022-08-21T02:23:27.055Z,46.28
2022-08-21T02:25:58.964Z,45.97
2022-08-21T02:28:25.845Z,46.15
2022-08-21T02:30:54.949Z,46.21
2022-08-21T02:33:21.964Z,46.25
2022-08-21T02:35:49.892Z,46.08
2022-08-21T02:38:20.301Z,46.19
2022-08-21T02:40:51.027Z,46.11
2022-08-21T02:43:20.129Z,46.16
2022-08-21T02:45:48.199Z,46.16
2022-08-21T02:48:19.125Z,46.12
2022-08-21T02:50:49.212Z,46.13
2022-08-21T02:53:17.643Z,46.17
2022-08-21T02:55:46.511Z,46.24
2022-08-21T02:58:13.830Z,46.27
2022-08-21T03:00:40.652Z,46.20
2022-08-21T03:05:36.145Z,46.25
2022-08-21T03:08:04.425Z,46.61
2022-08-21T03:10:32.024Z,46.44
2022-08-21T03:12:58.655Z,46.73
2022-08-21T03:15:25.816Z,46.63
2022-08-21T03:17:54.104Z,46.47
2022-08-21T03:20:24.888Z,46.80
2022-08-21T03:22:53.270Z,46.88
2022-08-21T03:25:22.497Z,47.12
2022-08-21T03:28:13.140Z,46.81
2022-08-21T03:30:44.912Z,46.96
2022-08-21T03:33:12.961Z,47.03
2022-08-21T03:35:43.425Z,47.41
2022-08-21T03:38:09.982Z,47.51
2022-08-21T03:40:36.806Z,47.28
2022-08-21T03:43:03.398Z,47.22
2022-08-21T03:45:29.972Z,47.41
2022-08-21T03:47:59.543Z,47.43
2022-08-21T03:50:28.524Z,47.45
2022-08-21T03:52:55.707Z,47.51
2022-08-21T03:55:22.724Z,47.37
2022-08-21T03:57:49.323Z,47.58
2022-08-21T04:00:17.774Z,47.68
2022-08-21T04:02:44.667Z,47.46
2022-08-21T04:05:12.348Z,47.22
2022-08-21T04:07:39.028Z,47.10
2022-08-21T04:10:07.182Z,47.18
2022-08-21T04:12:33.935Z,47.33
2022-08-21T04:15:02.733Z,47.80
2022-08-21T04:17:29.246Z,47.54
2022-08-21T04:19:56.070Z,47.54
2022-08-21T04:22:23.279Z,47.65
2022-08-21T04:24:50.844Z,47.50
2022-08-21T04:27:17.420Z,47.39
2022-08-21T04:29:43.967Z,47.40
2022-08-21T04:32:10.547Z,47.28
2022-08-21T04:34:37.406Z,47.12
2022-08-21T04:37:04.438Z,47.25
2022-08-21T04:39:31.036Z,47.30
2022-08-21T04:41:57.710Z,47.34
2022-08-21T04:44:24.537Z,47.25
2022-08-21T04:46:51.039Z,47.09
2022-08-21T04:49:17.633Z,47.23
2022-08-21T04:51:44.213Z,46.96
2022-08-21T04:54:16.590Z,47.24
2022-08-21T04:56:53.315Z,46.98
2022-08-21T04:59:34.173Z,47.25
2022-08-21T05:02:01.694Z,46.96
2022-08-21T05:04:32.732Z,47.09
2022-08-21T05:07:02.311Z,46.96
2022-08-21T05:09:29.471Z,46.66
2022-08-21T05:11:56.519Z,46.76
2022-08-21T05:14:23.149Z,47.12
2022-08-21T05:16:49.741Z,47.46
2022-08-21T05:19:16.481Z,47.07
2022-08-21T05:21:45.202Z,47.25
2022-08-21T05:24:12.475Z,47.26
2022-08-21T05:26:45.865Z,47.18
2022-08-21T05:29:14.683Z,47.44
2022-08-21T05:31:41.778Z,47.50
2022-08-21T05:34:09.236Z,47.86
2022-08-21T05:36:36.834Z,47.59
2022-08-21T05:39:04.229Z,47.54
2022-08-21T05:41:30.848Z,47.67
2022-08-21T05:44:00.852Z,47.71
2022-08-21T05:46:27.527Z,47.42
2022-08-21T05:48:54.118Z,47.88
2022-08-21T05:51:20.749Z,47.57
2022-08-21T05:53:47.394Z,47.27
2022-08-21T05:56:15.022Z,47.65
2022-08-21T05:58:43.342Z,47.75
2022-08-21T06:01:10.505Z,47.55
2022-08-21T06:03:40.355Z,47.46
2022-08-21T06:06:07.409Z,47.35
2022-08-21T06:08:35.068Z,47.13
2022-08-21T06:11:03.066Z,47.16
2022-08-21T06:16:23.498Z,47.49
2022-08-21T06:18:50.614Z,47.21
2022-08-21T06:21:17.547Z,47.25
2022-08-21T06:23:44.991Z,47.25
2022-08-21T06:26:13.869Z,47.46
2022-08-21T06:28:41.854Z,47.28
2022-08-21T06:31:18.182Z,47.52
2022-08-21T06:33:45.280Z,47.27
2022-08-21T06:36:12.019Z,47.90
2022-08-21T06:38:39.253Z,47.66
2022-08-21T06:41:06.393Z,47.71
2022-08-21T06:43:39.433Z,47.93
2022-08-21T06:46:06.142Z,48.04
2022-08-21T06:48:34.303Z,47.85
2022-08-21T06:51:01.786Z,48.20
2022-08-21T06:53:28.523Z,48.08
2022-08-21T06:55:55.076Z,47.99
2022-08-21T06:58:21.749Z,48.33
2022-08-21T07:00:52.133Z,48.28
2022-08-21T07:03:29.238Z,48.55
2022-08-21T07:05:57.773Z,48.47
2022-08-21T07:08:24.305Z,48.44
2022-08-21T07:10:51.996Z,48.44
2022-08-21T07:13:18.621Z,48.76
2022-08-21T07:15:45.954Z,48.50
2022-08-21T07:18:14.044Z,48.54
2022-08-21T07:20:41.031Z,48.57
2022-08-21T07:23:13.305Z,48.98
2022-08-21T07:25:39.951Z,48.82
2022-08-21T07:28:06.477Z,48.79
2022-08-21T07:30:33.126Z,48.71
2022-08-21T07:32:59.954Z,48.79
2022-08-21T07:35:29.067Z,49.02
2022-08-21T07:37:56.760Z,49.02
2022-08-21T07:40:23.760Z,49.01
2022-08-21T07:42:52.770Z,48.78
2022-08-21T07:45:22.279Z,49.14
2022-08-21T07:47:51.933Z,48.94
2022-08-21T07:50:20.805Z,49.10
2022-08-21T07:52:48.344Z,48.86
2022-08-21T07:55:19.100Z,49.17
2022-08-21T07:57:45.713Z,49.02
2022-08-21T08:00:16.630Z,49.01
2022-08-21T08:02:47.474Z,49.00
2022-08-21T08:05:14.161Z,48.85
2022-08-21T08:07:41.126Z,49.22
2022-08-21T08:10:09.026Z,49.25
2022-08-21T08:12:38.084Z,49.28
2022-08-21T08:15:08.822Z,49.26
2022-08-21T08:17:35.395Z,49.07
2022-08-21T08:20:02.072Z,49.07
2022-08-21T08:22:28.649Z,49.05
2022-08-21T08:24:55.877Z,49.11
2022-08-21T08:27:23.236Z,49.07
2022-08-21T08:29:50.677Z,49.10
2022-08-21T08:32:17.195Z,49.22
2022-08-21T08:34:44.198Z,49.19
2022-08-21T08:37:12.001Z,49.09
2022-08-21T08:39:39.666Z,49.27
2022-08-21T08:42:33.119Z,49.31
2022-08-21T08:45:17.521Z,49.68
2022-08-21T08:47:50.141Z,49.38
2022-08-21T08:50:22.714Z,49.13
2022-08-21T08:53:04.291Z,49.27
2022-08-21T08:55:42.057Z,49.46
2022-08-21T08:58:18.076Z,49.17
2022-08-21T09:00:48.339Z,49.37
2022-08-21T09:03:16.930Z,49.15
2022-08-21T09:05:47.205Z,49.44
2022-08-21T09:08:19.484Z,49.20
2022-08-21T09:10:55.372Z,49.52
2022-08-21T09:13:49.775Z,49.85
2022-08-21T09:16:26.763Z,49.01
2022-08-21T09:19:04.243Z,49.13
2022-08-21T09:21:47.267Z,49.04
2022-08-21T09:24:27.665Z,48.94
2022-08-21T09:27:12.145Z,48.84
2022-08-21T09:29:42.774Z,48.67
2022-08-21T09:32:37.211Z,49.12
2022-08-21T09:35:23.819Z,48.79
2022-08-21T09:38:07.447Z,48.60
2022-08-21T09:40:40.039Z,48.70
2022-08-21T09:43:12.839Z,48.65
2022-08-21T09:45:42.889Z,48.53
2022-08-21T09:48:15.632Z,48.57
2022-08-21T09:50:43.873Z,48.36
2022-08-21T09:53:27.584Z,48.63
2022-08-21T09:56:25.489Z,48.41
2022-08-21T09:58:52.487Z,48.40
2022-08-21T10:01:22.779Z,48.53
2022-08-21T10:04:02.374Z,48.39
2022-08-21T10:06:30.229Z,48.53
2022-08-21T10:09:19.871Z,48.52
2022-08-21T10:11:59.891Z,48.43
2022-08-21T10:14:45.428Z,48.35
2022-08-21T10:17:43.111Z,48.32
2022-08-21T10:20:52.845Z,48.21
2022-08-21T10:23:51.328Z,48.15
2022-08-21T10:26:46.391Z,47.94
2022-08-21T10:29:31.460Z,48.22
2022-08-21T10:32:56.874Z,48.32
2022-08-21T10:35:31.425Z,48.24
2022-08-21T10:38:46.409Z,48.01
2022-08-21T10:41:20.954Z,48.34
2022-08-21T10:44:30.958Z,48.55
2022-08-21T10:47:39.307Z,48.22
2022-08-21T10:50:18.530Z,48.00
2022-08-21T10:53:03.227Z,48.09
2022-08-21T10:55:38.933Z,48.01
2022-08-21T10:58:11.140Z,47.92
2022-08-21T11:00:49.356Z,47.65
2022-08-21T11:03:28.781Z,48.01
2022-08-21T11:06:03.472Z,47.34
2022-08-21T11:08:34.921Z,47.39
2022-08-21T11:11:11.005Z,47.51
2022-08-21T11:14:04.003Z,47.42
2022-08-21T11:16:47.750Z,47.04
2022-08-21T11:19:21.855Z,47.19
2022-08-21T11:21:56.800Z,47.02
2022-08-21T11:24:54.567Z,46.79
2022-08-21T11:27:33.194Z,47.04
2022-08-21T11:30:01.380Z,46.85
2022-08-21T11:32:37.190Z,46.88
2022-08-21T11:35:07.099Z,46.89
2022-08-21T11:37:36.483Z,46.76
2022-08-21T11:40:19.630Z,46.60
2022-08-21T11:43:02.572Z,46.18
2022-08-21T11:45:44.686Z,46.32
2022-08-21T11:48:45.175Z,45.84
2022-08-21T11:51:18.751Z,46.13
2022-08-21T11:53:57.218Z,45.86
2022-08-21T11:56:56.593Z,45.87
2022-08-21T11:59:58.528Z,45.27
2022-08-21T12:02:32.469Z,45.57
2022-08-21T12:05:12.867Z,45.45
2022-08-21T12:07:42.659Z,45.98
2022-08-21T12:10:14.579Z,45.85
2022-08-21T12:12:43.300Z,46.02
2022-08-21T12:15:18.991Z,45.79
2022-08-21T12:18:29.531Z,45.64
2022-08-21T12:21:04.055Z,46.07
2022-08-21T12:23:48.821Z,46.13
2022-08-21T12:26:25.791Z,45.94
2022-08-21T12:29:03.383Z,45.92
2022-08-21T12:31:30.477Z,45.81
2022-08-21T12:34:00.916Z,45.88
2022-08-21T12:36:43.342Z,45.64
2022-08-21T12:39:20.569Z,46.15
2022-08-21T12:42:14.464Z,45.89
2022-08-21T12:44:47.170Z,45.90
2022-08-21T12:47:52.011Z,45.88
2022-08-21T12:50:34.265Z,45.89
2022-08-21T12:53:20.417Z,46.15
2022-08-21T12:55:47.758Z,46.28
2022-08-21T12:58:22.316Z,46.23
2022-08-21T13:00:52.424Z,45.51
2022-08-21T13:03:19.636Z,45.42
2022-08-21T13:05:46.559Z,45.54
2022-08-21T13:08:14.688Z,45.66
2022-08-21T13:10:42.413Z,45.53
2022-08-21T13:13:25.814Z,45.46
2022-08-21T13:16:05.409Z,45.87
2022-08-21T13:18:52.899Z,45.29
2022-08-21T13:21:22.064Z,45.49
2022-08-21T13:23:49.167Z,45.29
2022-08-21T13:26:23.248Z,44.63
2022-08-21T13:28:51.222Z,44.90
2022-08-21T13:31:29.011Z,44.59
2022-08-21T13:33:56.378Z,45.29
2022-08-21T13:36:29.292Z,45.51
2022-08-21T13:38:56.193Z,44.98
2022-08-21T13:41:28.417Z,45.55
2022-08-21T13:44:04.484Z,45.18
2022-08-21T13:46:34.479Z,45.29
2022-08-21T13:49:03.905Z,45.26
2022-08-21T13:51:32.297Z,45.50
2022-08-21T13:53:59.697Z,45.34
2022-08-21T13:56:42.992Z,45.44
2022-08-21T13:59:09.674Z,45.69
2022-08-21T14:02:14.655Z,45.50
2022-08-21T14:04:57.630Z,45.30
2022-08-21T14:07:37.853Z,45.30
2022-08-21T14:10:15.231Z,45.06
2022-08-21T14:12:49.898Z,45.14
2022-08-21T14:15:18.767Z,45.17
2022-08-21T14:17:45.996Z,45.30
2022-08-21T14:20:26.870Z,45.20
2022-08-21T14:22:53.924Z,44.51
2022-08-21T14:25:20.495Z,45.10
2022-08-21T14:27:53.416Z,44.35
2022-08-21T14:30:36.618Z,44.20
2022-08-21T14:33:05.542Z,44.90
2022-08-21T14:35:32.190Z,44.64
2022-08-21T14:37:58.745Z,44.46
2022-08-21T14:40:26.198Z,44.74
2022-08-21T14:42:52.991Z,44.70
2022-08-21T14:45:24.908Z,44.99
2022-08-21T14:47:55.466Z,45.13
2022-08-21T14:50:22.293Z,44.92
2022-08-21T14:52:49.126Z,44.80
2022-08-21T14:55:17.884Z,44.43
2022-08-21T14:57:48.401Z,44.45
2022-08-21T15:00:22.728Z,44.53
2022-08-21T15:02:50.146Z,44.59
2022-08-21T15:05:31.395Z,44.19
2022-08-21T15:07:58.246Z,44.64
2022-08-21T15:10:24.916Z,44.48
2022-08-21T15:12:51.585Z,44.17
2022-08-21T15:15:18.288Z,44.39
2022-08-21T15:17:48.173Z,44.53
2022-08-21T15:20:15.614Z,44.32
2022-08-21T15:22:47.765Z,43.95
2022-08-21T15:25:15.321Z,43.98
2022-08-21T15:27:42.006Z,44.13
2022-08-21T15:30:09.321Z,44.33
2022-08-21T15:32:35.899Z,44.30
2022-08-21T15:35:03.361Z,44.07
2022-08-21T15:37:30.328Z,44.08
2022-08-21T15:39:57.453Z,44.18
2022-08-21T15:42:27.793Z,44.12
2022-08-21T15:44:56.135Z,44.11
2022-08-21T15:47:29.509Z,43.85
2022-08-21T15:49:56.081Z,44.09
2022-08-21T15:52:24.163Z,44.17
2022-08-21T15:54:51.444Z,44.13
2022-08-21T15:57:21.377Z,43.75
2022-08-21T16:00:11.533Z,43.60
2022-08-21T16:02:39.355Z,43.74
2022-08-21T16:05:06.184Z,44.12
2022-08-21T16:07:32.848Z,44.17
2022-08-21T16:09:59.600Z,44.34
2022-08-21T16:12:33.340Z,43.97
2022-08-21T16:15:02.275Z,44.14
2022-08-21T16:17:32.188Z,44.30
2022-08-21T16:20:00.747Z,44.06
2022-08-21T16:22:27.456Z,44.30
2022-08-21T16:25:09.139Z,44.35
2022-08-21T16:27:36.702Z,44.26
2022-08-21T16:30:06.549Z,44.13
2022-08-21T16:32:35.285Z,44.10
2022-08-21T16:35:02.863Z,43.80
2022-08-21T16:37:29.425Z,44.31
2022-08-21T16:39:56.065Z,43.97
2022-08-21T16:42:26.024Z,44.35
2022-08-21T16:44:55.257Z,43.98
2022-08-21T16:47:26.962Z,44.40
2022-08-21T16:49:54.106Z,44.19
2022-08-21T16:52:20.689Z,44.14
2022-08-21T16:54:47.287Z,44.49
2022-08-21T16:57:14.952Z,44.37
2022-08-21T16:59:41.667Z,44.05
2022-08-21T17:02:30.008Z,44.03
2022-08-21T17:04:56.991Z,44.17
2022-08-21T17:07:23.795Z,44.14
2022-08-21T17:09:50.481Z,44.02
2022-08-21T17:12:17.356Z,44.00
2022-08-21T17:14:43.995Z,43.55
2022-08-21T17:17:11.580Z,43.81
2022-08-21T17:19:38.150Z,43.85
2022-08-21T17:22:05.280Z,43.54
2022-08-21T17:24:31.891Z,43.51
2022-08-21T17:26:59.486Z,43.68
2022-08-21T17:29:29.769Z,43.29
2022-08-21T17:31:57.578Z,43.64
2022-08-21T17:34:28.922Z,43.22
2022-08-21T17:36:58.451Z,43.18
2022-08-21T17:39:26.680Z,43.43
2022-08-21T17:41:57.826Z,43.31
2022-08-21T17:44:25.565Z,43.33
2022-08-21T17:46:52.096Z,43.18
2022-08-21T17:49:18.642Z,43.55
2022-08-21T17:51:45.208Z,43.34
2022-08-21T17:54:12.040Z,43.27
2022-08-21T17:56:42.930Z,43.15
2022-08-21T17:59:10.792Z,43.15
2022-08-21T18:01:42.579Z,42.92
2022-08-21T18:04:11.355Z,43.15
2022-08-21T18:06:38.643Z,43.07
2022-08-21T18:09:06.524Z,43.17
2022-08-21T18:11:34.600Z,43.52
2022-08-21T18:14:07.300Z,43.40
2022-08-21T18:16:36.139Z,43.43
2022-08-21T18:19:05.772Z,43.40
2022-08-21T18:21:32.671Z,43.35
2022-08-21T18:23:59.333Z,43.43
2022-08-21T18:26:30.575Z,43.06
2022-08-21T18:29:00.510Z,43.43
2022-08-21T18:31:30.486Z,43.41
2022-08-21T18:33:58.945Z,43.56
2022-08-21T18:36:27.472Z,43.66
2022-08-21T18:38:54.985Z,43.52
2022-08-21T18:41:22.321Z,43.53
2022-08-21T18:43:48.990Z,43.66
2022-08-21T18:46:16.255Z,43.68
2022-08-21T18:48:43.870Z,43.37
2022-08-21T18:51:12.230Z,43.70
2022-08-21T18:53:39.175Z,43.61
2022-08-21T18:56:07.273Z,43.77
2022-08-21T18:58:44.255Z,43.48
2022-08-21T19:01:10.920Z,43.88
2022-08-21T19:03:38.336Z,43.79
2022-08-21T19:06:05.897Z,43.99
2022-08-21T19:08:36.798Z,43.85
2022-08-21T19:11:06.547Z,43.71
2022-08-21T19:13:34.549Z,43.69
2022-08-21T19:16:05.099Z,43.94
2022-08-21T19:18:35.559Z,44.10
2022-08-21T19:21:02.655Z,43.91
2022-08-21T19:23:30.177Z,43.86
2022-08-21T19:26:00.931Z,44.11
2022-08-21T19:28:30.820Z,44.02
2022-08-21T19:31:01.988Z,43.98
2022-08-21T19:33:37.397Z,44.04
2022-08-21T19:36:06.654Z,44.29
2022-08-21T19:38:34.021Z,44.59
2022-08-21T19:41:01.697Z,44.48
2022-08-21T19:43:29.472Z,44.30
2022-08-21T19:45:58.109Z,44.57
2022-08-21T19:48:26.032Z,44.35
2022-08-21T19:50:53.118Z,44.36
2022-08-21T19:53:20.128Z,44.53
2022-08-21T19:55:48.189Z,44.46
2022-08-21T19:58:38.244Z,44.47
2022-08-21T20:01:11.310Z,44.55
2022-08-21T20:03:43.867Z,44.88
2022-08-21T20:06:10.793Z,44.67
2022-08-21T20:08:37.859Z,44.96
2022-08-21T20:11:05.240Z,44.95
2022-08-21T20:13:33.964Z,45.34
2022-08-21T20:16:12.307Z,45.65
2022-08-21T20:18:41.437Z,45.28
2022-08-21T20:21:10.783Z,45.18
2022-08-21T20:23:37.332Z,45.20
2022-08-21T20:26:15.633Z,45.33
2022-08-21T20:28:43.244Z,45.46
2022-08-21T20:31:10.598Z,45.48
2022-08-21T20:33:38.021Z,45.18
2022-08-21T20:36:05.125Z,45.36
2022-08-21T20:38:31.777Z,45.41
2022-08-21T20:40:58.427Z,45.26
2022-08-21T20:43:26.771Z,45.50
2022-08-21T20:45:55.297Z,45.75
2022-08-21T20:48:49.388Z,45.76
2022-08-21T20:51:24.642Z,45.69
2022-08-21T20:54:14.630Z,45.92
2022-08-21T20:57:13.612Z,46.00
2022-08-21T20:59:50.044Z,46.05
2022-08-21T21:02:16.600Z,46.06
2022-08-21T21:04:51.558Z,46.02
2022-08-21T21:07:24.944Z,45.99
2022-08-21T21:09:55.530Z,45.79
2022-08-21T21:12:31.523Z,45.96
2022-08-21T21:15:05.277Z,45.80
2022-08-21T21:17:52.887Z,45.67
2022-08-21T21:20:29.551Z,45.65
2022-08-21T21:23:09.132Z,45.56
2022-08-21T21:25:53.709Z,45.71
2022-08-21T21:31:29.874Z,45.83
2022-08-21T21:33:59.243Z,45.65
2022-08-21T21:36:36.906Z,45.81
2022-08-21T21:39:23.515Z,45.74
2022-08-21T21:42:07.321Z,45.63
2022-08-21T21:45:08.526Z,45.49
2022-08-21T21:47:37.988Z,45.33
2022-08-21T21:50:36.921Z,45.33
2022-08-21T21:53:44.279Z,45.64
2022-08-21T22:00:05.350Z,45.68
2022-08-21T22:02:58.656Z,45.86
2022-08-21T22:05:51.672Z,46.10
2022-08-21T22:11:32.138Z,46.06
2022-08-21T22:14:09.870Z,46.03
2022-08-21T22:16:37.472Z,45.95
2022-08-21T22:19:29.183Z,46.22
2022-08-21T22:22:06.078Z,46.14
2022-08-21T22:24:40.326Z,46.20
2022-08-21T22:27:12.081Z,45.95
2022-08-21T22:29:49.151Z,46.16
2022-08-21T22:32:25.079Z,46.46
2022-08-21T22:35:21.495Z,46.34
2022-08-21T22:37:57.552Z,46.38
2022-08-21T22:40:27.425Z,46.52
2022-08-21T22:43:26.588Z,46.60
2022-08-21T22:46:09.662Z,46.55
2022-08-21T22:48:46.503Z,46.48
2022-08-21T22:51:35.347Z,46.76
2022-08-21T22:54:03.086Z,46.54
2022-08-21T22:56:38.490Z,46.53
2022-08-21T22:59:18.741Z,46.64
2022-08-21T23:01:52.939Z,46.58
2022-08-21T23:04:22.326Z,46.68
2022-08-21T23:06:52.916Z,46.58
2022-08-21T23:09:33.830Z,46.91
2022-08-21T23:12:21.097Z,46.75
2022-08-21T23:14:48.787Z,46.77
2022-08-21T23:17:34.020Z,46.82
2022-08-21T23:20:10.178Z,46.92
2022-08-21T23:22:58.851Z,47.14
2022-08-21T23:25:25.413Z,46.69
2022-08-21T23:28:27.550Z,47.06
2022-08-21T23:31:18.572Z,46.95
2022-08-21T23:34:08.155Z,46.82
2022-08-21T23:36:58.784Z,46.94
2022-08-21T23:40:02.972Z,47.16
2022-08-21T23:42:47.769Z,47.11
2022-08-21T23:45:39.985Z,47.24
2022-08-21T23:48:49.724Z,47.04
2022-08-21T23:51:35.500Z,47.05
2022-08-21T23:54:04.814Z,46.88
2022-08-21T23:56:41.042Z,47.03
2022-08-21T23:59:14.319Z,47.19
